Weather at Barrie Executive Airport

Public forecast

Using degrees Celsius for public forecast. Weather courtesy of forecast.io.

Closest aviation weather report (METAR) to Barrie Executive Airport

Closest report is Muskoka Airport, 38.6 nm (71.5 km) NNE.

2024/05/28 22:46 (retrieved 15 minutes ago)

CYQA 282246Z AUTO 32007KT 9SM -RA FEW076 BKN094 OVC120 16/14 A2983 RMK LTNG DIST N SE S SLP105 DENSITY ALT 1400FT

Closest aviation forecast (TAF) to Barrie Executive Airport

Closest forecast is Muskoka Airport, 38.6 nm (71.5 km) NNE.

2024/05/28 22:39 Ammendment (retrieved 22 minutes ago)

TAF AMD TAF AMD CYQA 282238Z 2822/2902 29010G20KT P6SM FEW020 BKN040 TEMPO 2822/2824 2SM TSRA BR OVC020CB FM290000 32008KT P6SM SCT020 BKN040 TEMPO 2900/2902 BKN020 OVC040 RMK FCST BASED ON AUTO OBS NXT FCST BY 291200Z